Time;durP1;ratioP1;P1;durP2;ratioP2;P2;SDS_P1;SDS_P2;PMS_P1;PMS_P2;Temp;Humidity;BMP_temperature;BMP_pressure;BME280_temperature;BME280_humidity;BME280_pressure;Samples;Min_cycle;Max_cycle;Signal;HPM_P1;HPM_P2
2024/04/16 00:01:59;;;;;;;2.53;1.40;;;3.50;99.90;;;;;;5130124;27;20013;-84
2024/04/16 00:05:00;;;;;;;3.53;1.50;;;3.60;99.90;;;;;;5131813;27;20084;-81
2024/04/16 00:07:53;;;;;;;5.20;1.38;;;3.60;99.90;;;;;;5126014;27;20046;-85
2024/04/16 00:11:22;;;;;;;5.78;1.60;;;3.60;99.90;;;;;;5111072;27;20674;-85
2024/04/16 00:14:12;;;;;;;2.50;1.23;;;3.50;99.90;;;;;;5188060;27;20127;-82
2024/04/16 00:17:14;;;;;;;2.55;1.60;;;3.50;99.90;;;;;;5119189;27;20009;-82
2024/04/16 00:20:01;;;;;;;4.15;1.30;;;3.50;99.90;;;;;;5129735;27;20021;-83
2024/04/16 00:22:52;;;;;;;5.78;1.30;;;3.50;99.90;;;;;;5118497;27;20026;-83
2024/04/16 00:26:02;;;;;;;4.82;1.45;;;3.50;99.90;;;;;;5120143;27;20005;-83
2024/04/16 00:29:05;;;;;;;2.42;1.55;;;3.50;99.90;;;;;;5129223;27;20122;-82
2024/04/16 00:31:58;;;;;;;4.45;1.48;;;3.50;99.90;;;;;;5147015;27;19997;-81
2024/04/16 00:35:45;;;;;;;;;;;;;;;;;;;;;
2024/04/16 00:38:14;;;;;;;3.15;1.55;;;3.50;1.00;;;;;;5130226;27;20016;-80
2024/04/16 00:41:22;;;;;;;6.15;1.88;;;3.40;1.00;;;;;;5111930;27;20029;-84
2024/04/16 00:44:37;;;;;;;5.65;1.75;;;3.50;1.00;;;;;;5124488;27;20386;-82
2024/04/16 00:48:26;;;;;;;2.97;1.60;;;3.40;1.00;;;;;;5123427;27;20009;-82
2024/04/16 00:51:17;;;;;;;2.97;1.80;;;3.40;1.00;;;;;;5143158;27;20016;-84
2024/04/16 00:54:05;;;;;;;4.38;1.60;;;3.40;1.00;;;;;;5148917;27;20021;-81
2024/04/16 00:57:10;;;;;;;6.68;2.10;;;3.40;47.80;;;;;;5122860;27;20066;-82
2024/04/16 01:00:05;;;;;;;5.45;1.67;;;3.30;1.00;;;;;;5127040;27;20009;-84
2024/04/16 01:02:54;;;;;;;4.57;2.35;;;3.40;24.10;;;;;;5121402;27;20338;-84
2024/04/16 01:05:46;;;;;;;5.60;1.98;;;3.30;51.00;;;;;;5130220;27;20448;-83
2024/04/16 01:08:55;;;;;;;5.03;1.92;;;3.30;99.90;;;;;;5125955;27;20016;-82
2024/04/16 01:11:46;;;;;;;;;;;3.30;99.90;;;;;;5142555;27;20020;-80
2024/04/16 01:14:48;;;;;;;7.28;2.28;;;3.30;99.90;;;;;;5123341;27;20345;-83
2024/04/16 01:17:58;;;;;;;6.78;2.45;;;3.30;99.90;;;;;;5129166;27;20453;-85
2024/04/16 01:20:57;;;;;;;5.30;1.98;;;3.30;99.90;;;;;;5127282;27;20484;-84
2024/04/16 01:24:05;;;;;;;5.03;2.17;;;3.20;99.90;;;;;;5138890;27;20009;-86
2024/04/16 01:26:56;;;;;;;8.40;2.45;;;3.20;99.90;;;;;;5139716;27;20044;-80
2024/04/16 01:29:53;;;;;;;4.85;1.88;;;3.20;99.90;;;;;;5146212;27;20023;-82
2024/04/16 01:33:24;;;;;;;5.35;1.63;;;3.10;99.90;;;;;;5135071;27;20000;-82
2024/04/16 01:36:59;;;;;;;7.88;2.20;;;3.10;99.90;;;;;;5127324;27;20179;-84
2024/04/16 01:39:59;;;;;;;7.57;2.63;;;3.10;99.90;;;;;;5142024;27;20017;-82
2024/04/16 01:42:50;;;;;;;5.30;2.78;;;3.10;99.90;;;;;;5125160;27;20643;-83
2024/04/16 01:45:45;;;;;;;6.38;2.17;;;3.00;99.90;;;;;;5130087;27;20474;-84
2024/04/16 01:48:41;;;;;;;7.13;2.47;;;3.00;1.00;;;;;;5133248;27;20005;-82
2024/04/16 01:51:44;;;;;;;4.25;2.40;;;3.00;1.00;;;;;;5136530;27;20009;-83
2024/04/16 01:54:40;;;;;;;5.72;2.50;;;3.00;1.00;;;;;;5129084;27;21095;-84
2024/04/16 01:57:49;;;;;;;6.53;2.25;;;3.00;1.00;;;;;;5130534;27;20011;-85
2024/04/16 02:01:26;;;;;;;;;;;;;;;;;;;;;
2024/04/16 02:04:54;;;;;;;6.78;2.50;;;3.00;1.00;;;;;;5123695;27;20009;-84
2024/04/16 02:07:51;;;;;;;4.15;2.03;;;3.00;6.80;;;;;;5121828;27;20009;-83
2024/04/16 02:11:30;;;;;;;7.35;2.65;;;3.00;20.80;;;;;;5148403;27;20032;-83
2024/04/16 02:14:44;;;;;;;3.80;2.40;;;3.00;89.40;;;;;;5140278;27;20005;-83
2024/04/16 02:17:40;;;;;;;5.28;2.28;;;2.90;92.90;;;;;;5142206;27;20013;-84
2024/04/16 02:21:04;;;;;;;4.40;2.03;;;2.90;99.90;;;;;;5133746;27;20010;-84
2024/04/16 02:24:44;;;;;;;3.83;2.17;;;2.90;99.90;;;;;;5127043;27;20042;-83
2024/04/16 02:28:22;;;;;;;4.57;2.13;;;2.90;99.90;;;;;;5128990;27;20543;-82
2024/04/16 02:31:18;;;;;;;4.90;2.22;;;2.90;99.90;;;;;;5143102;27;20334;-81
2024/04/16 02:37:17;;;;;;;7.63;2.20;;;2.90;99.90;;;;;;5194688;22;20519;-83
2024/04/16 02:40:09;;;;;;;5.15;2.55;;;2.90;99.90;;;;;;5134774;27;20009;-85
2024/04/16 02:42:56;;;;;;;7.10;2.60;;;2.90;99.90;;;;;;5127007;27;20005;-83
2024/04/16 02:46:16;;;;;;;5.05;2.13;;;2.90;99.90;;;;;;5133198;27;20030;-82
2024/04/16 02:49:19;;;;;;;6.32;2.38;;;3.00;99.90;;;;;;5137612;27;20009;-81
2024/04/16 02:52:44;;;;;;;5.72;1.95;;;3.00;99.90;;;;;;5124324;27;20005;-83
2024/04/16 02:56:41;;;;;;;7.40;2.30;;;3.00;99.90;;;;;;5113880;27;20016;-84
2024/04/16 02:59:52;;;;;;;6.22;2.53;;;2.90;99.90;;;;;;5140523;27;20002;-80
2024/04/16 03:02:39;;;;;;;7.70;2.50;;;2.90;99.90;;;;;;5131841;27;20009;-84
2024/04/16 03:05:55;;;;;;;5.05;2.20;;;2.90;99.90;;;;;;5125675;27;20019;-83
2024/04/16 03:08:45;;;;;;;5.75;2.80;;;2.80;99.90;;;;;;5125272;27;20009;-86
2024/04/16 03:11:32;;;;;;;4.85;2.28;;;2.80;99.90;;;;;;5131138;27;20016;-87
2024/04/16 03:14:28;;;;;;;8.50;2.38;;;2.80;1.00;;;;;;5126532;27;20013;-85
2024/04/16 03:17:30;;;;;;;4.75;1.63;;;2.80;99.90;;;;;;5128047;27;20017;-87
2024/04/16 03:20:18;;;;;;;3.88;2.40;;;2.80;1.00;;;;;;5128711;27;20024;-83
2024/04/16 03:23:05;;;;;;;4.80;2.63;;;2.80;1.00;;;;;;5126451;27;20074;-85
2024/04/16 03:25:55;;;;;;;7.13;2.22;;;2.90;1.00;;;;;;5127945;27;20020;-84
2024/04/16 03:28:43;;;;;;;6.18;2.13;;;2.90;1.00;;;;;;5130908;27;20013;-87
2024/04/16 03:31:32;;;;;;;3.45;2.10;;;2.90;1.00;;;;;;5148486;27;20021;-88
2024/04/16 03:34:30;;;;;;;3.50;1.90;;;2.90;1.00;;;;;;5128610;27;20024;-83
2024/04/16 03:37:27;;;;;;;6.93;2.50;;;2.80;1.00;;;;;;5127189;27;20017;-83
2024/04/16 03:40:35;;;;;;;4.15;2.42;;;2.80;38.80;;;;;;5120735;27;20141;-85
2024/04/16 03:43:32;;;;;;;4.03;2.10;;;2.80;99.90;;;;;;5125795;27;20330;-87
2024/04/16 03:46:41;;;;;;;4.85;1.80;;;2.80;99.90;;;;;;5123954;27;20425;-84
2024/04/16 03:49:34;;;;;;;4.35;2.10;;;2.80;99.90;;;;;;5123885;27;20016;-83
2024/04/16 03:52:26;;;;;;;6.57;2.00;;;2.80;98.00;;;;;;5137701;27;20102;-86
2024/04/16 03:55:41;;;;;;;3.53;2.20;;;2.90;99.90;;;;;;5137924;27;20021;-86
2024/04/16 03:58:32;;;;;;;5.35;2.45;;;2.80;99.90;;;;;;5136782;22;20062;-84
2024/04/16 04:01:31;;;;;;;3.90;1.95;;;2.90;99.90;;;;;;5130190;27;20609;-86
2024/04/16 04:04:23;;;;;;;6.25;2.13;;;2.90;99.90;;;;;;5125904;27;20009;-86
2024/04/16 04:07:27;;;;;;;4.00;2.30;;;2.90;99.90;;;;;;5128434;27;20119;-85
2024/04/16 04:10:31;;;;;;;5.57;2.00;;;2.80;27.40;;;;;;5124250;27;20013;-87
2024/04/16 04:13:25;;;;;;;7.10;2.55;;;2.80;1.00;;;;;;5124637;27;20049;-84
2024/04/16 04:16:21;;;;;;;4.90;1.92;;;2.80;6.90;;;;;;5126726;27;20009;-84
2024/04/16 04:19:18;;;;;;;5.15;1.98;;;2.80;1.00;;;;;;5124349;27;20037;-84
2024/04/16 04:22:22;;;;;;;3.83;1.77;;;2.70;1.00;;;;;;5116671;27;20009;-83
2024/04/16 04:25:16;;;;;;;3.28;2.10;;;2.60;1.00;;;;;;5135934;27;20013;-85
2024/04/16 04:28:04;;;;;;;6.70;1.90;;;2.60;1.00;;;;;;5140226;27;20017;-84
2024/04/16 04:31:14;;;;;;;1.88;1.73;;;2.60;99.90;;;;;;5131739;27;20024;-85
2024/04/16 04:34:08;;;;;;;6.03;1.98;;;2.50;99.90;;;;;;5130127;27;20013;-84
2024/04/16 04:37:37;;;;;;;8.02;2.67;;;2.50;99.90;;;;;;5131199;27;20005;-84
2024/04/16 04:40:48;;;;;;;5.80;1.90;;;2.50;99.90;;;;;;5130923;27;20438;-85
2024/04/16 04:44:01;;;;;;;4.53;1.70;;;2.50;99.90;;;;;;5126325;27;20021;-88
2024/04/16 04:47:14;;;;;;;2.80;1.98;;;2.40;99.90;;;;;;5126797;27;20066;-87
2024/04/16 04:50:24;;;;;;;7.65;1.95;;;2.30;99.90;;;;;;5127619;27;20041;-85
2024/04/16 04:53:25;;;;;;;7.25;2.22;;;2.20;99.90;;;;;;5131036;27;20005;-86
2024/04/16 04:56:19;;;;;;;4.70;2.10;;;2.30;99.90;;;;;;5132549;27;20013;-84
2024/04/16 04:59:16;;;;;;;5.95;2.20;;;2.40;99.90;;;;;;5138521;27;20012;-86
2024/04/16 05:02:59;;;;;;;;;;;;;;;;;;;;;
2024/04/16 05:06:03;;;;;;;9.85;2.30;;;2.70;93.30;;;;;;5141052;27;20020;-84
2024/04/16 05:08:56;;;;;;;10.93;3.25;;;2.90;1.00;;;;;;5134033;27;20009;-85
2024/04/16 05:11:58;;;;;;;7.03;2.13;;;2.90;99.90;;;;;;5131194;27;20013;-84
2024/04/16 05:14:47;;;;;;;;;;;3.00;99.90;;;;;;5125490;27;20129;-83
2024/04/16 05:18:32;;;;;;;7.55;2.40;;;3.20;99.90;;;;;;5127880;27;19929;-85
2024/04/16 05:31:19;;;;;;;16.63;2.95;;;3.70;99.90;;;;;;5101174;27;20013;-82
2024/04/16 05:34:33;;;;;;;20.58;3.63;;;3.70;1.00;;;;;;5101583;27;20025;-84
2024/04/16 05:38:08;;;;;;;14.02;2.92;;;3.70;1.00;;;;;;5087260;27;20055;-82
2024/04/16 05:54:33;;;;;;;;;;;;;;;;;;;;;
2024/04/16 06:15:05;;;;;;;;;;;;;;;;;;;;;
2024/04/16 06:28:01;;;;;;;;;;;;;;;;;;;;;
2024/04/16 06:32:18;;;;;;;;;;;;;;;;;;;;;
2024/04/16 06:35:57;;;;;;;13.25;2.53;;;5.60;99.90;;;;;;4878897;29;20046;-84
2024/04/16 07:35:47;;;;;;;;;;;;;;;;;;;;;
2024/04/16 07:57:57;;;;;;;;;;;;;;;;;;;;;
2024/04/16 08:05:37;;;;;;;;;;;;;;;;;;;;;
2024/04/16 08:35:36;;;;;;;;;;;;;;;;;;;;;
2024/04/16 13:33:55;;;;;;;3.30;1.13;;;10.90;1.00;;;;;;5029285;28;20455;-84
2024/04/16 13:37:49;;;;;;;2.50;0.95;;;11.60;1.00;;;;;;4965680;28;20478;-82
2024/04/16 13:40:59;;;;;;;3.33;1.20;;;10.80;1.00;;;;;;5016400;28;20012;-83
2024/04/16 13:52:47;;;;;;;;;;;;;;;;;;;;;
2024/04/16 14:01:23;;;;;;;2.53;1.02;;;12.70;1.00;;;;;;4812825;29;20054;-83
2024/04/16 14:25:53;;;;;;;;;;;;;;;;;;;;;
2024/04/16 14:45:52;;;;;;;2.92;0.80;;;12.30;1.00;;;;;;4992764;28;20011;-83
2024/04/16 15:02:25;;;;;;;3.08;1.30;;;10.90;1.00;;;;;;4976748;28;20529;-81
2024/04/16 15:10:15;;;;;;;;;;;;;;;;;;;;;
2024/04/16 16:29:58;;;;;;;1.63;0.90;;;10.50;1.00;;;;;;5910025;22;20466;-84
2024/04/16 16:33:03;;;;;;;1.25;0.95;;;10.50;1.00;;;;;;5146798;27;20020;-81
2024/04/16 16:35:52;;;;;;;1.45;1.02;;;10.40;1.00;;;;;;5143133;27;20026;-81
2024/04/16 16:38:40;;;;;;;6.50;1.30;;;10.00;1.00;;;;;;5127498;27;20546;-82
2024/04/16 16:41:31;;;;;;;3.65;1.30;;;9.60;1.00;;;;;;5096119;28;20068;-82
2024/04/16 16:44:19;;;;;;;4.10;1.20;;;9.30;1.00;;;;;;5098823;28;20056;-83
2024/04/16 16:47:08;;;;;;;1.95;1.00;;;9.00;1.00;;;;;;5100334;27;20006;-84
2024/04/16 16:50:02;;;;;;;0.98;0.98;;;8.90;1.00;;;;;;5108811;27;20017;-82
2024/04/16 16:52:50;;;;;;;1.58;1.05;;;8.90;1.00;;;;;;5109933;27;20045;-82
2024/04/16 16:55:37;;;;;;;6.88;1.58;;;8.90;1.00;;;;;;5110332;28;20014;-85
2024/04/16 16:58:59;;;;;;;3.88;1.42;;;8.70;1.00;;;;;;5106461;27;20086;-83
2024/04/16 17:01:53;;;;;;;1.75;1.00;;;8.40;1.00;;;;;;5097279;27;20002;-84
2024/04/16 17:05:32;;;;;;;4.05;1.20;;;8.30;1.00;;;;;;5084449;27;20005;-85
2024/04/16 17:08:22;;;;;;;5.30;1.63;;;8.20;3.60;;;;;;5088216;27;20010;-83
2024/04/16 17:11:13;;;;;;;6.10;1.83;;;8.00;10.00;;;;;;5089053;28;20014;-85
2024/04/16 17:14:06;;;;;;;3.80;2.10;;;8.00;17.30;;;;;;5089972;27;20573;-85
2024/04/16 17:16:54;;;;;;;2.53;1.10;;;7.90;23.50;;;;;;5091330;28;20025;-85
2024/04/16 17:19:43;;;;;;;4.88;2.70;;;7.90;28.10;;;;;;5095087;27;20868;-83
2024/04/16 17:22:33;;;;;;;8.23;3.72;;;7.80;30.60;;;;;;5096865;27;20014;-84
2024/04/16 17:25:21;;;;;;;2.47;1.65;;;7.80;36.10;;;;;;5097655;27;20014;-81
2024/04/16 17:28:21;;;;;;;4.82;1.70;;;7.80;38.70;;;;;;5091513;27;20064;-86
2024/04/16 17:31:20;;;;;;;4.00;2.10;;;7.80;39.60;;;;;;5099244;27;20498;-82
2024/04/16 17:34:11;;;;;;;1.75;1.23;;;7.80;39.10;;;;;;5091366;27;20022;-82
2024/04/16 17:37:05;;;;;;;1.30;0.90;;;7.80;39.70;;;;;;5098337;27;20012;-80
2024/04/16 17:40:21;;;;;;;2.47;1.20;;;7.80;40.10;;;;;;5088899;27;20353;-83
2024/04/16 17:43:12;;;;;;;4.38;1.63;;;7.70;41.00;;;;;;5091881;27;20087;-83
2024/04/16 17:46:01;;;;;;;3.22;1.35;;;7.70;45.90;;;;;;5103593;28;20472;-81
2024/04/16 17:48:50;;;;;;;1.45;1.00;;;7.70;45.10;;;;;;5118373;27;20028;-80
2024/04/16 17:51:41;;;;;;;1.52;1.17;;;7.60;49.00;;;;;;5126290;27;20021;-83
2024/04/16 17:54:30;;;;;;;1.63;0.90;;;7.60;53.80;;;;;;5098397;28;20006;-85
2024/04/16 17:57:18;;;;;;;1.00;1.00;;;7.60;59.10;;;;;;5086275;28;20006;-83
2024/04/16 18:00:08;;;;;;;4.72;1.30;;;7.60;69.50;;;;;;5105544;28;20002;-84
2024/04/16 18:02:56;;;;;;;4.25;1.77;;;7.60;80.80;;;;;;5099257;27;20118;-85
2024/04/16 18:05:45;;;;;;;1.25;1.10;;;7.50;88.10;;;;;;5095854;27;20006;-86
2024/04/16 18:08:34;;;;;;;2.45;1.25;;;7.50;96.90;;;;;;5098315;27;20038;-85
2024/04/16 18:11:25;;;;;;;0.80;0.80;;;7.40;99.90;;;;;;5087429;28;20018;-86
2024/04/16 18:14:16;;;;;;;4.53;1.83;;;7.40;99.90;;;;;;5094415;27;20001;-84
2024/04/16 18:17:21;;;;;;;1.75;1.25;;;7.40;99.90;;;;;;5089462;28;20014;-86
2024/04/16 18:20:14;;;;;;;5.75;1.27;;;7.40;99.90;;;;;;5090972;27;20016;-86
2024/04/16 18:23:05;;;;;;;2.35;1.40;;;7.40;99.90;;;;;;5095322;28;20029;-84
2024/04/16 18:25:54;;;;;;;1.52;1.13;;;7.40;99.90;;;;;;5086555;28;20853;-85
2024/04/16 18:29:33;;;;;;;1.73;1.52;;;7.40;99.90;;;;;;5091079;27;20018;-86
2024/04/16 18:32:25;;;;;;;3.33;1.50;;;7.30;99.90;;;;;;5098342;28;20024;-85
2024/04/16 18:35:22;;;;;;;3.60;1.10;;;7.00;99.90;;;;;;5091396;28;20006;-83
2024/04/16 19:04:37;;;;;;;1.60;1.15;;;6.60;99.90;;;;;;5062244;28;20006;-84
2024/04/16 19:07:29;;;;;;;1.13;1.00;;;6.50;99.90;;;;;;5065953;28;20468;-81
2024/04/16 19:10:30;;;;;;;1.10;1.00;;;6.50;99.90;;;;;;5058040;28;20091;-84
2024/04/16 19:13:26;;;;;;;3.55;1.20;;;6.50;99.90;;;;;;5055795;28;20029;-85
2024/04/16 19:16:20;;;;;;;1.48;1.17;;;6.50;99.90;;;;;;5062070;28;20031;-84
2024/04/16 19:19:20;;;;;;;1.60;1.15;;;6.50;99.90;;;;;;5061044;28;20033;-83
2024/04/16 19:22:26;;;;;;;1.70;1.30;;;6.50;99.90;;;;;;5057790;28;20065;-85
2024/04/16 19:26:07;;;;;;;3.90;2.00;;;6.50;99.90;;;;;;5075903;28;20006;-83
2024/04/16 19:29:23;;;;;;;3.75;1.80;;;6.50;99.90;;;;;;5066208;28;20026;-86
2024/04/16 19:32:20;;;;;;;4.13;1.60;;;6.50;99.90;;;;;;5061802;28;20011;-85
2024/04/16 19:35:07;;;;;;;2.63;1.55;;;6.60;99.90;;;;;;5061932;28;20011;-85
2024/04/16 19:38:17;;;;;;;1.65;1.17;;;6.60;99.90;;;;;;5061914;28;20010;-85
2024/04/16 19:41:12;;;;;;;1.48;1.30;;;6.60;99.90;;;;;;5062496;28;20480;-83
2024/04/16 19:44:02;;;;;;;1.85;1.23;;;6.60;99.90;;;;;;5083925;27;20029;-85
2024/04/16 19:47:00;;;;;;;2.55;1.30;;;6.60;99.90;;;;;;5063676;28;20091;-86
2024/04/16 19:50:01;;;;;;;2.25;1.38;;;6.60;99.90;;;;;;5059128;28;20039;-84
2024/04/16 19:52:54;;;;;;;3.08;2.08;;;6.60;99.90;;;;;;5057642;28;20098;-85
2024/04/16 20:00:53;;;;;;;;;;;;;;;;;;;;;
2024/04/16 20:04:46;;;;;;;3.47;1.77;;;6.50;99.90;;;;;;5054767;28;20029;-85
2024/04/16 20:08:37;;;;;;;;;;;;;;;;;;;;;
2024/04/16 20:12:04;;;;;;;3.40;1.48;;;6.30;1.00;;;;;;5061234;27;20002;-84
2024/04/16 20:15:57;;;;;;;;;;;;;;;;;;;;;
2024/04/16 20:24:38;;;;;;;;;;;;;;;;;;;;;
2024/04/16 20:27:58;;;;;;;3.42;1.80;;;5.70;99.90;;;;;;5022711;28;20010;-83
2024/04/16 20:31:14;;;;;;;3.33;2.03;;;5.70;1.00;;;;;;5064025;28;20015;-86
2024/04/16 20:34:42;;;;;;;3.33;2.10;;;5.70;1.00;;;;;;5060445;28;20575;-84
2024/04/16 20:37:54;;;;;;;1.83;1.73;;;5.60;1.00;;;;;;5024174;28;20025;-83
2024/04/16 20:40:47;;;;;;;3.22;2.30;;;5.60;99.90;;;;;;5074815;27;20088;-85
2024/04/16 20:44:31;;;;;;;3.42;2.30;;;5.60;99.90;;;;;;5084414;27;20556;-84
2024/04/16 20:47:35;;;;;;;8.15;2.40;;;5.60;99.90;;;;;;5106544;27;20003;-82
2024/04/16 20:51:15;;;;;;;3.13;1.98;;;5.50;99.90;;;;;;5062665;28;20042;-83
2024/04/16 20:55:13;;;;;;;8.48;2.47;;;5.50;1.00;;;;;;5075356;27;20039;-84
2024/04/16 20:58:41;;;;;;;1.88;1.50;;;5.40;1.00;;;;;;5060500;28;20014;-86
2024/04/16 21:07:18;;;;;;;2.97;2.03;;;5.20;99.90;;;;;;5572929;22;20010;-84
2024/04/16 21:11:04;;;;;;;3.22;2.90;;;5.20;99.90;;;;;;5091461;28;20010;-84
2024/04/16 21:14:36;;;;;;;2.70;1.75;;;5.20;99.90;;;;;;5088465;28;20390;-83
2024/04/16 21:23:16;;;;;;;1.50;1.40;;;5.10;99.90;;;;;;4851089;29;20015;-83
2024/04/16 21:27:34;;;;;;;1.77;1.55;;;5.10;99.90;;;;;;4884533;29;20014;-84
2024/04/16 21:30:35;;;;;;;2.90;1.80;;;5.00;99.90;;;;;;4913675;29;20396;-84
2024/04/16 21:45:08;;;;;;;1.73;1.40;;;4.90;99.90;;;;;;5146139;27;20013;-81
2024/04/16 21:48:52;;;;;;;1.17;1.08;;;4.80;99.90;;;;;;5123320;27;20024;-84
2024/04/16 21:52:37;;;;;;;1.00;1.00;;;4.80;99.90;;;;;;5133568;27;20543;-82
2024/04/16 21:56:03;;;;;;;1.38;0.90;;;4.70;99.90;;;;;;5122826;27;20014;-83
2024/04/16 21:59:16;;;;;;;1.05;1.05;;;4.70;99.90;;;;;;5120539;27;20476;-84
2024/04/16 22:03:07;;;;;;;1.30;1.10;;;4.70;99.90;;;;;;5123608;27;20134;-85
2024/04/16 22:06:20;;;;;;;1.08;1.08;;;4.70;99.90;;;;;;5150112;27;20013;-82
2024/04/16 22:09:10;;;;;;;0.82;0.82;;;4.60;99.90;;;;;;5127769;27;20006;-84
2024/04/16 22:12:20;;;;;;;1.80;1.10;;;4.50;99.90;;;;;;5151599;27;20028;-84
2024/04/16 22:15:40;;;;;;;1.27;1.17;;;4.50;99.90;;;;;;5116999;27;20067;-85
2024/04/16 22:19:04;;;;;;;1.00;1.00;;;4.50;99.90;;;;;;5131920;27;20053;-81
2024/04/16 22:21:52;;;;;;;2.50;1.40;;;4.50;99.90;;;;;;5132491;27;20064;-82
2024/04/16 22:24:40;;;;;;;1.60;1.40;;;4.50;99.90;;;;;;5134534;27;20014;-82
2024/04/16 22:27:38;;;;;;;;;;;4.60;99.90;;;;;;5118469;27;20005;-83
2024/04/16 22:30:54;;;;;;;3.05;1.13;;;4.60;99.90;;;;;;5139593;27;19935;-83
2024/04/16 22:34:23;;;;;;;1.15;1.10;;;4.60;99.90;;;;;;5136764;27;20005;-82
2024/04/16 22:38:23;;;;;;;1.90;1.55;;;4.70;99.90;;;;;;5122021;27;20013;-85
2024/04/16 22:46:04;;;;;;;1.33;1.23;;;4.70;99.90;;;;;;5102218;27;20311;-81
2024/04/16 22:49:17;;;;;;;1.35;1.25;;;4.70;99.90;;;;;;5111363;27;20062;-81
2024/04/16 22:52:30;;;;;;;1.25;1.23;;;4.70;99.90;;;;;;5126449;27;20013;-84
2024/04/16 22:55:27;;;;;;;1.10;1.10;;;4.60;99.90;;;;;;5112464;27;20013;-84
2024/04/16 22:58:23;;;;;;;1.65;1.30;;;4.70;99.90;;;;;;5114953;27;20028;-83
2024/04/16 23:01:11;;;;;;;1.42;1.23;;;4.70;99.90;;;;;;5122053;27;20009;-84
2024/04/16 23:04:33;;;;;;;1.50;1.10;;;4.70;99.90;;;;;;5130213;27;20013;-82
2024/04/16 23:07:32;;;;;;;1.50;1.40;;;4.70;99.90;;;;;;5111754;27;20030;-85
2024/04/16 23:10:25;;;;;;;2.60;1.40;;;4.70;99.90;;;;;;5265916;22;20044;-84
2024/04/16 23:13:17;;;;;;;1.75;1.48;;;4.70;99.90;;;;;;5146116;27;20063;-83
2024/04/16 23:16:39;;;;;;;1.70;1.60;;;4.70;99.90;;;;;;5127275;27;20021;-81
2024/04/16 23:20:11;;;;;;;1.60;1.50;;;4.70;99.90;;;;;;5117051;27;20009;-82
2024/04/16 23:23:26;;;;;;;3.65;1.55;;;4.80;99.90;;;;;;5122330;27;20010;-84
2024/04/16 23:26:48;;;;;;;1.67;1.58;;;4.80;99.90;;;;;;5121503;27;20027;-83
2024/04/16 23:41:43;;;;;;;;;;;;;;;;;;;;;
2024/04/16 23:49:55;;;;;;;1.90;1.80;;;4.70;1.00;;;;;;5169177;27;20004;-84
2024/04/16 23:58:20;;;;;;;;;;;;;;;;;;;;;
